Vernon, Connecticut
Current Conditions -  °F | °C
As of 6:53 PM on Sunday 23 Nov 2014 (Local Time) from KHFD Reporting Station
Clear Clear  
Wind Chill: 44°   Ceiling: Unl
Heat Index: 47°   Visibility: 10mi
Dew Point: 29°   Wind: 7mph
Humidity: 50%   Direction: 180°S
Pressure: 30.13"   Gusts: NA
Location:  41.837°N, 72.4608°W
Report Text: KHFD 232353Z 18006KT 10SM CLR 08/M02 A3013 RMK AO2 SLP201 T00831017 10144 20083 50003
Loading
Personal Weather Stations






























Interactive Weather Map New forecast layout! Learn more

10-Day Weather Forecast

Advertisements
Track Severe Weather on mobile